Time;durP1;ratioP1;P1;durP2;ratioP2;P2;SDS_P1;SDS_P2;PMS_P1;PMS_P2;Temp;Humidity;BMP_temperature;BMP_pressure;BME280_temperature;BME280_humidity;BME280_pressure;Samples;Min_cycle;Max_cycle;Signal;HPM_P1;HPM_P2
2022/10/14 00:01:02;428263.00;1.43;738.40;13804.00;0.05;24.54;;;;;19.10;4.00;;;;;;2276384;61;1021;-85
2022/10/14 00:03:29;630578.00;2.10;1087.05;50293.00;0.17;87.69;;;;;19.20;4.00;;;;;;2276152;61;1342;-85
2022/10/14 00:05:57;309121.00;1.03;533.60;0.00;0.00;0.62;;;;;19.30;4.20;;;;;;2276154;61;1919;-84
2022/10/14 00:08:25;423124.00;1.41;729.56;48114.00;0.16;83.92;;;;;19.40;4.10;;;;;;2275998;61;1341;-84
2022/10/14 00:10:52;374869.00;1.25;646.61;42555.00;0.14;74.31;;;;;19.60;3.80;;;;;;2276317;61;1584;-85
2022/10/14 00:13:19;313631.00;1.05;541.35;29723.00;0.10;52.10;;;;;19.60;3.90;;;;;;2276282;61;1294;-85
2022/10/14 00:15:46;296329.00;0.99;511.61;0.00;0.00;0.62;;;;;19.70;3.30;;;;;;2276416;61;1403;-85
2022/10/14 00:18:13;607479.00;2.02;1047.14;20879.00;0.07;36.79;;;;;19.50;3.60;;;;;;2276338;61;1202;-85
2022/10/14 00:20:40;230845.00;0.77;399.00;0.00;0.00;0.62;;;;;19.50;3.60;;;;;;2276363;61;1204;-85
2022/10/14 00:23:08;412929.00;1.38;712.03;0.00;0.00;0.62;;;;;19.20;4.20;;;;;;2275870;61;1616;-86
2022/10/14 00:25:39;401127.00;1.34;691.74;0.00;0.00;0.62;;;;;19.20;4.60;;;;;;2276311;61;1489;-84
2022/10/14 00:28:06;473482.00;1.58;816.18;702.00;0.00;1.84;;;;;19.10;4.50;;;;;;2276317;61;1994;-85
2022/10/14 00:30:33;405174.00;1.35;698.70;11804.00;0.04;21.07;;;;;18.90;5.00;;;;;;2276214;61;1376;-84
2022/10/14 00:33:00;623549.00;2.08;1074.90;126990.00;0.42;220.14;;;;;18.60;5.20;;;;;;2276255;61;1065;-84
2022/10/14 00:35:27;444246.00;1.48;765.89;162817.00;0.54;281.89;;;;;18.70;5.90;;;;;;2276375;61;1254;-84
2022/10/14 00:37:54;477064.00;1.59;822.34;15206.00;0.05;26.97;;;;;18.70;5.20;;;;;;2276275;61;1162;-86
2022/10/14 00:40:22;361612.00;1.21;623.82;19820.00;0.07;34.96;;;;;18.90;5.40;;;;;;2276094;61;1082;-85
2022/10/14 00:42:49;475674.00;1.59;819.95;0.00;0.00;0.62;;;;;19.10;5.50;;;;;;2276338;61;980;-84
2022/10/14 00:45:21;219319.00;0.73;379.17;0.00;0.00;0.62;;;;;19.20;4.80;;;;;;2276126;61;1381;-83
2022/10/14 00:47:52;536476.00;1.79;924.65;20298.00;0.07;35.79;;;;;19.40;4.80;;;;;;2276320;61;1947;-83
2022/10/14 00:50:20;396417.00;1.32;683.65;0.00;0.00;0.62;;;;;19.40;3.90;;;;;;2275930;61;1183;-85
2022/10/14 00:52:48;306728.00;1.02;529.49;0.00;0.00;0.62;;;;;19.30;4.70;;;;;;2276282;61;1114;-84
2022/10/14 00:55:18;357298.00;1.19;616.40;44101.00;0.15;76.98;;;;;19.20;4.70;;;;;;2272679;61;2219;-83
2022/10/14 00:57:46;553995.00;1.85;954.85;22893.00;0.08;40.28;;;;;19.20;4.60;;;;;;2276094;61;1412;-85
2022/10/14 01:00:17;249879.00;0.83;431.74;0.00;0.00;0.62;;;;;19.20;5.30;;;;;;2276314;61;1120;-85
2022/10/14 01:02:44;204606.00;0.68;353.85;0.00;0.00;0.62;;;;;19.10;5.20;;;;;;2276211;61;1316;-84
2022/10/14 01:05:14;274262.00;0.91;473.67;0.00;0.00;0.62;;;;;19.10;5.40;;;;;;2276219;61;1327;-84
2022/10/14 01:07:52;226772.00;0.76;392.00;0.00;0.00;0.62;;;;;19.00;5.40;;;;;;2275979;61;1978;-84
2022/10/14 01:10:29;354959.00;1.18;612.38;0.00;0.00;0.62;;;;;19.10;5.20;;;;;;2276220;61;1064;-85
2022/10/14 01:13:13;159720.00;0.53;276.56;0.00;0.00;0.62;;;;;19.20;5.10;;;;;;2276325;61;1331;-85
2022/10/14 01:15:49;265328.00;0.88;458.31;0.00;0.00;0.62;;;;;19.30;5.10;;;;;;2276239;61;1588;-86
2022/10/14 01:18:33;248630.00;0.83;429.59;0.00;0.00;0.62;;;;;19.30;5.10;;;;;;2276225;61;1289;-86
2022/10/14 01:21:17;251133.00;0.84;433.90;0.00;0.00;0.62;;;;;19.30;5.40;;;;;;2276153;61;1635;-87
2022/10/14 01:24:21;553971.00;1.85;954.81;15056.00;0.05;26.71;;;;;19.20;5.40;;;;;;2276037;61;1478;-86
2022/10/14 01:27:25;314380.00;1.05;542.64;0.00;0.00;0.62;;;;;19.10;5.30;;;;;;2276182;61;2006;-83
2022/10/14 01:30:11;128050.00;0.43;221.97;0.00;0.00;0.62;;;;;19.00;5.40;;;;;;2276022;61;911;-83
2022/10/14 01:32:50;269852.00;0.90;466.09;8116.00;0.03;14.68;;;;;18.90;5.40;;;;;;2276216;61;1558;-84
2022/10/14 01:35:29;437157.00;1.46;753.69;85826.00;0.29;149.10;;;;;18.70;5.20;;;;;;2275932;61;1531;-85
2022/10/14 01:38:00;223992.00;0.75;387.21;0.00;0.00;0.62;;;;;18.80;5.80;;;;;;2276050;61;1095;-84
2022/10/14 01:40:34;122046032.00;406.82;73645384.00;0.00;0.00;0.62;;;;;18.90;5.40;;;;;;2276197;61;1591;-86
2022/10/14 01:43:04;509316.00;1.70;877.86;21381.00;0.07;37.66;;;;;19.00;5.40;;;;;;2275930;61;1064;-87
2022/10/14 01:45:37;351861.00;1.17;607.06;9749.00;0.03;17.51;;;;;19.10;5.50;;;;;;2276236;61;1498;-88
2022/10/14 01:48:06;269777.00;0.90;465.96;0.00;0.00;0.62;;;;;19.10;5.40;;;;;;2276145;61;1992;-87
2022/10/14 01:50:36;423297.00;1.41;729.86;55790.00;0.19;97.20;;;;;19.10;5.50;;;;;;2276197;61;1623;-87
2022/10/14 01:53:09;450455.00;1.50;776.57;0.00;0.00;0.62;;;;;19.20;5.50;;;;;;2276085;61;1740;-87
2022/10/14 01:55:40;448090.00;1.49;772.50;0.00;0.00;0.62;;;;;19.30;5.40;;;;;;2276161;61;1595;-86
2022/10/14 01:58:14;431275.00;1.44;743.58;0.00;0.00;0.62;;;;;19.10;4.70;;;;;;2276154;61;1156;-85
2022/10/14 02:00:43;328682.00;1.10;567.22;43536.00;0.15;76.01;;;;;19.20;5.20;;;;;;2276222;61;1150;-84
2022/10/14 02:03:11;493793.00;1.65;851.14;0.00;0.00;0.62;;;;;19.30;5.00;;;;;;2276009;61;1123;-86
2022/10/14 02:05:44;405383.00;1.35;699.06;0.00;0.00;0.62;;;;;19.10;5.40;;;;;;2276194;61;1377;-86
2022/10/14 02:08:19;375380.00;1.25;647.48;0.00;0.00;0.62;;;;;19.20;4.90;;;;;;2275770;61;2005;-85
2022/10/14 02:11:07;359950.00;1.20;620.96;0.00;0.00;0.62;;;;;19.10;5.00;;;;;;2275894;61;1477;-85
2022/10/14 02:13:57;340244.00;1.13;587.09;0.00;0.00;0.62;;;;;18.90;5.40;;;;;;2276042;61;1407;-85
2022/10/14 02:16:34;315982.00;1.05;545.39;42318.00;0.14;73.90;;;;;19.10;5.50;;;;;;2276115;61;1134;-84
2022/10/14 02:19:08;380726.00;1.27;656.67;0.00;0.00;0.62;;;;;19.00;5.40;;;;;;2276019;61;1159;-85
2022/10/14 02:21:41;110938.00;0.37;192.45;0.00;0.00;0.62;;;;;18.90;5.40;;;;;;2275963;61;1113;-83
2022/10/14 02:24:15;411676.00;1.37;709.88;0.00;0.00;0.62;;;;;18.80;5.70;;;;;;2275942;61;1432;-83
2022/10/14 02:26:44;198698.00;0.66;343.68;0.00;0.00;0.62;;;;;18.70;6.40;;;;;;2276481;61;1984;-85
2022/10/14 02:29:12;190438.00;0.63;329.46;0.00;0.00;0.62;;;;;18.90;5.90;;;;;;2276728;61;1197;-83
2022/10/14 02:31:44;167591.00;0.56;290.12;19480.00;0.06;34.37;;;;;19.00;5.50;;;;;;2276640;61;1119;-84
2022/10/14 02:34:16;331589.00;1.11;572.22;0.00;0.00;0.62;;;;;19.10;5.50;;;;;;2276702;61;1452;-84
2022/10/14 02:36:46;293681.00;0.98;507.06;22718.00;0.08;39.98;;;;;19.10;5.50;;;;;;2276778;61;1019;-85
2022/10/14 02:39:20;582995.00;1.94;1004.87;32220.00;0.11;56.43;;;;;19.20;5.60;;;;;;2276626;61;1160;-85
2022/10/14 02:41:47;173860.00;0.58;300.92;0.00;0.00;0.62;;;;;19.10;5.50;;;;;;2276585;61;1809;-87
2022/10/14 02:44:14;445717.00;1.49;768.42;0.00;0.00;0.62;;;;;19.00;5.40;;;;;;2276463;61;1228;-86
2022/10/14 02:46:43;259479.00;0.86;448.25;0.00;0.00;0.62;;;;;18.80;6.00;;;;;;2276710;61;1206;-85
2022/10/14 02:49:10;295121.00;0.98;509.53;0.00;0.00;0.62;;;;;18.80;6.30;;;;;;2276609;61;1102;-85
2022/10/14 02:51:37;310600.00;1.04;536.14;24981.00;0.08;43.89;;;;;18.90;5.80;;;;;;2276548;61;1501;-84
2022/10/14 02:54:04;395022.00;1.32;681.25;52141.00;0.17;90.89;;;;;18.80;5.50;;;;;;2276114;61;1364;-85
2022/10/14 02:56:31;316046.00;1.05;545.50;47578.00;0.16;83.00;;;;;18.90;5.80;;;;;;2272562;61;1155;-86
2022/10/14 02:58:57;494954.00;1.65;853.14;0.00;0.00;0.62;;;;;18.90;5.40;;;;;;2272498;61;939;-83
2022/10/14 03:01:24;474751.00;1.58;818.36;0.00;0.00;0.62;;;;;18.80;6.20;;;;;;2272542;61;1396;-85
2022/10/14 03:03:54;208388.00;0.69;360.36;0.00;0.00;0.62;;;;;18.80;6.20;;;;;;2275558;61;1457;-87
2022/10/14 03:06:22;859360.00;2.86;1484.85;0.00;0.00;0.62;;;;;18.90;5.40;;;;;;2298159;56;3726;-87
2022/10/14 03:08:50;138264.00;0.46;239.58;0.00;0.00;0.62;;;;;18.80;5.30;;;;;;2276560;61;2017;-85
2022/10/14 03:11:17;423581.00;1.41;730.35;0.00;0.00;0.62;;;;;18.50;6.30;;;;;;2276385;61;1254;-84
2022/10/14 03:13:47;174708.00;0.58;302.38;0.00;0.00;0.62;;;;;18.30;7.30;;;;;;2276531;61;1363;-83
2022/10/14 03:16:14;225554.00;0.75;389.90;0.00;0.00;0.62;;;;;18.40;7.10;;;;;;2276567;61;1599;-84
2022/10/14 03:18:41;242833.00;0.81;419.62;0.00;0.00;0.62;;;;;18.60;6.80;;;;;;2276437;61;1096;-85
2022/10/14 03:21:09;389057.00;1.30;670.99;2287.00;0.01;4.58;;;;;18.60;6.40;;;;;;2276561;61;1155;-85
2022/10/14 03:23:36;248157.00;0.83;428.78;30341.00;0.10;53.17;;;;;18.40;6.80;;;;;;2276474;61;1393;-85
2022/10/14 03:26:03;220595.00;0.74;381.37;0.00;0.00;0.62;;;;;18.30;7.20;;;;;;2276495;61;2195;-86
2022/10/14 03:28:30;371909.00;1.24;641.52;0.00;0.00;0.62;;;;;18.10;7.40;;;;;;2277701;55;3725;-86
2022/10/14 03:30:57;384425.00;1.28;663.03;0.00;0.00;0.62;;;;;18.00;7.90;;;;;;2276603;61;1087;-85
2022/10/14 03:33:24;427543.00;1.43;737.16;0.00;0.00;0.62;;;;;18.20;8.60;;;;;;2276448;61;1605;-85
2022/10/14 03:35:51;589545.00;1.97;1016.17;71739.00;0.24;124.77;;;;;18.30;7.60;;;;;;2276457;61;1350;-86
2022/10/14 03:38:19;220605.00;0.74;381.38;0.00;0.00;0.62;;;;;18.40;7.70;;;;;;2276333;61;1152;-86
2022/10/14 03:40:46;158398.00;0.53;274.28;0.00;0.00;0.62;;;;;18.50;8.00;;;;;;2276463;61;1116;-85
2022/10/14 03:43:13;231958.00;0.77;400.92;0.00;0.00;0.62;;;;;18.50;7.60;;;;;;2276511;61;1120;-86
2022/10/14 03:45:40;380518.00;1.27;656.32;0.00;0.00;0.62;;;;;18.30;7.60;;;;;;2276604;61;1397;-87
2022/10/14 03:48:07;164770.00;0.55;285.26;0.00;0.00;0.62;;;;;18.00;8.00;;;;;;2276521;61;1994;-85
2022/10/14 03:50:34;465653.00;1.55;802.71;14458.00;0.05;25.67;;;;;18.30;8.30;;;;;;2276516;61;1099;-86
2022/10/14 03:53:01;362485.00;1.21;625.32;0.00;0.00;0.62;;;;;18.20;7.80;;;;;;2276521;61;1035;-88
2022/10/14 03:55:30;117527776.00;391.76;65758420.00;0.00;0.00;0.62;;;;;18.10;8.10;;;;;;2276364;61;1400;-85
2022/10/14 03:57:56;238324.00;0.79;411.87;0.00;0.00;0.62;;;;;18.10;9.00;;;;;;2276397;61;968;-85
2022/10/14 04:00:23;296239.00;0.99;511.45;0.00;0.00;0.62;;;;;18.30;8.70;;;;;;2276442;61;1136;-85
2022/10/14 04:02:50;455795.00;1.52;785.75;59444.00;0.20;103.52;;;;;18.50;7.80;;;;;;2276494;61;940;-85
2022/10/14 04:05:17;222349.00;0.74;384.39;0.00;0.00;0.62;;;;;18.50;7.60;;;;;;2276402;61;1535;-86
2022/10/14 04:07:44;192488.00;0.64;332.99;0.00;0.00;0.62;;;;;18.50;7.50;;;;;;2275988;61;1986;-85
2022/10/14 04:10:11;267565.00;0.89;462.16;0.00;0.00;0.62;;;;;18.60;7.40;;;;;;2276377;61;1279;-86
2022/10/14 04:12:39;284965.00;0.95;492.07;0.00;0.00;0.62;;;;;18.80;7.40;;;;;;2276345;61;1169;-86
2022/10/14 04:15:07;235601.00;0.79;407.18;0.00;0.00;0.62;;;;;18.70;6.90;;;;;;2276387;61;1269;-85
2022/10/14 04:17:34;420723.00;1.40;725.43;4132.00;0.01;7.78;;;;;18.80;6.90;;;;;;2276356;61;933;-84
2022/10/14 04:20:01;232387.00;0.77;401.66;0.00;0.00;0.62;;;;;19.00;6.90;;;;;;2276490;61;1094;-88
2022/10/14 04:22:28;589852.00;1.97;1016.70;58489.00;0.19;101.86;;;;;18.90;6.10;;;;;;2276406;61;1094;-87
2022/10/14 04:24:55;524474.00;1.75;903.97;33167.00;0.11;58.06;;;;;19.00;6.60;;;;;;2276312;61;1420;-89
2022/10/14 04:27:22;407335.00;1.36;702.42;0.00;0.00;0.62;;;;;19.00;6.50;;;;;;2276132;61;2018;-87
2022/10/14 04:29:51;357971.00;1.19;617.56;0.00;0.00;0.62;;;;;18.80;5.90;;;;;;2276249;61;924;-86
2022/10/14 04:32:18;217904.00;0.73;376.74;0.00;0.00;0.62;;;;;18.80;6.50;;;;;;2275982;61;1100;-86
2022/10/14 04:34:45;467251.00;1.56;805.46;9738.00;0.03;17.50;;;;;19.00;6.00;;;;;;2275984;61;1421;-84
2022/10/14 04:37:12;382523.00;1.28;659.76;57208.00;0.19;99.65;;;;;18.70;6.90;;;;;;2275874;61;1116;-85
2022/10/14 04:39:40;238143.00;0.79;411.56;50106.00;0.17;87.37;;;;;18.60;6.90;;;;;;2275956;61;1172;-84
2022/10/14 04:42:07;370254.00;1.23;638.67;41678.00;0.14;72.79;;;;;18.70;7.30;;;;;;2275951;61;1127;-84
2022/10/14 04:44:34;355379.00;1.18;613.11;0.00;0.00;0.62;;;;;18.60;6.90;;;;;;2275973;61;1336;-85
2022/10/14 04:49:30;792115.00;2.64;1367.38;0.00;0.00;0.62;;;;;18.70;7.30;;;;;;2273912;61;1986;-85
2022/10/14 04:51:57;166621.00;0.56;288.45;0.00;0.00;0.62;;;;;18.50;7.00;;;;;;2271993;61;1154;-84
2022/10/14 04:54:24;446725.00;1.49;770.15;28158.00;0.09;49.39;;;;;18.20;8.90;;;;;;2272068;61;1338;-85
2022/10/14 04:59:20;583867.00;1.95;1006.37;0.00;0.00;0.62;;;;;18.30;8.90;;;;;;2277641;61;1405;-88
2022/10/14 05:01:47;253959.00;0.85;438.76;19218.00;0.06;33.92;;;;;18.30;8.00;;;;;;2276247;61;1242;-84
2022/10/14 05:04:14;162707.00;0.54;281.70;0.00;0.00;0.62;;;;;18.30;8.00;;;;;;2276313;61;1371;-84
2022/10/14 05:06:42;150551.00;0.50;260.76;0.00;0.00;0.62;;;;;18.20;8.60;;;;;;2276242;61;1121;-85
2022/10/14 05:09:09;235193.00;0.78;406.48;0.00;0.00;0.62;;;;;18.30;8.00;;;;;;2276006;61;2016;-86
2022/10/14 05:11:36;153929.00;0.51;266.58;0.00;0.00;0.62;;;;;18.20;8.70;;;;;;2276200;61;1047;-86
2022/10/14 05:14:03;282684.00;0.94;488.15;0.00;0.00;0.62;;;;;18.20;9.00;;;;;;2276042;61;1401;-85
2022/10/14 05:16:30;180475.00;0.60;312.31;0.00;0.00;0.62;;;;;18.50;8.90;;;;;;2287709;40;3566;-85
2022/10/14 05:18:57;320821.00;1.07;553.71;0.00;0.00;0.62;;;;;18.60;8.20;;;;;;2272048;61;1625;-84
2022/10/14 05:21:24;299466.00;1.00;517.00;0.00;0.00;0.62;;;;;18.50;7.50;;;;;;2272111;61;1443;-86
2022/10/14 05:23:53;203701.00;0.68;352.29;10859.00;0.04;19.44;;;;;18.70;7.90;;;;;;2272053;61;1375;-86
2022/10/14 05:26:20;152549.00;0.51;264.20;0.00;0.00;0.62;;;;;18.70;7.70;;;;;;2272028;61;1074;-86
2022/10/14 05:28:46;593990.00;1.98;1023.84;68423.00;0.23;119.04;;;;;18.60;7.80;;;;;;2271623;61;2002;-87
2022/10/14 05:31:13;127140.00;0.42;220.40;0.00;0.00;0.62;;;;;18.40;8.00;;;;;;2268083;61;1135;-84
2022/10/14 05:33:40;272090.00;0.91;469.94;0.00;0.00;0.62;;;;;18.30;8.10;;;;;;2268058;61;1278;-86
2022/10/14 05:36:08;170147.00;0.57;294.52;0.00;0.00;0.62;;;;;18.30;8.20;;;;;;2268034;61;1008;-87
2022/10/14 05:38:35;189732.00;0.63;328.25;35655.00;0.12;62.37;;;;;18.40;7.50;;;;;;2267838;61;1621;-87
2022/10/14 05:41:03;48442.00;0.16;84.49;0.00;0.00;0.62;;;;;18.50;7.90;;;;;;2271974;61;1147;-87
2022/10/14 05:43:30;1625.00;0.01;3.44;0.00;0.00;0.62;;;;;18.70;7.90;;;;;;2271613;61;1144;-88
2022/10/14 05:45:57;257595.00;0.86;445.01;31898.00;0.11;55.87;;;;;18.80;7.50;;;;;;2271650;61;1389;-87
2022/10/14 05:48:27;270279.00;0.90;466.82;0.00;0.00;0.62;;;;;18.90;7.00;;;;;;2271867;61;1915;-88
2022/10/14 05:50:54;76135.00;0.25;132.36;0.00;0.00;0.62;;;;;18.80;7.20;;;;;;2271819;61;1070;-85
2022/10/14 05:53:22;267894.00;0.89;462.72;0.00;0.00;0.62;;;;;18.70;7.00;;;;;;2271955;61;2008;-85
2022/10/14 05:55:49;242161.00;0.81;418.47;19885.00;0.07;35.07;;;;;18.90;7.70;;;;;;2271851;61;1605;-87
2022/10/14 05:58:36;117132440.00;390.44;65096480.00;16413.00;0.05;29.06;;;;;18.70;6.90;;;;;;2271851;61;1151;-86
2022/10/14 06:03:34;1252517.00;4.18;2185.46;70894.00;0.24;123.31;;;;;19.00;7.00;;;;;;2323586;40;3563;-85
2022/10/14 06:16:03;1406381.00;4.69;2468.16;152861.00;0.51;264.74;;;;;18.90;7.60;;;;;;2269871;61;1411;-85
2022/10/14 06:18:30;370017.00;1.23;638.27;69688.00;0.23;121.22;;;;;19.00;7.40;;;;;;2268360;61;1124;-85
2022/10/14 06:20:57;677369.00;2.26;1168.02;71401.00;0.24;124.18;;;;;18.90;7.40;;;;;;2268228;61;1121;-87
2022/10/14 06:31:04;1321429.00;4.40;2311.38;63767.00;0.21;110.99;;;;;18.60;7.90;;;;;;2269757;61;1443;-87
2022/10/14 06:33:31;648611.00;2.16;1118.23;0.00;0.00;0.62;;;;;18.40;8.60;;;;;;2268246;61;1544;-87
2022/10/14 06:40:54;1613619.00;5.38;2858.79;0.00;0.00;0.62;;;;;18.80;7.60;;;;;;2270169;61;1400;-86
2022/10/14 06:45:50;1643538.00;5.48;2916.24;0.00;0.00;0.62;;;;;18.70;8.30;;;;;;2284978;55;3710;-86
2022/10/14 06:53:14;1498798.00;5.00;2640.86;115088.00;0.38;199.61;;;;;19.20;7.50;;;;;;2286402;40;3651;-87
2022/10/14 06:55:40;881151.00;2.94;1523.04;65504.00;0.22;113.99;;;;;19.40;7.40;;;;;;2276932;61;1189;-86
2022/10/14 06:58:09;1056834.00;3.52;1833.40;28859.00;0.10;50.61;;;;;19.40;6.80;;;;;;2277149;61;964;-88
2022/10/14 07:00:36;582926.00;1.94;1004.75;7892.00;0.03;14.30;;;;;19.40;6.50;;;;;;2277095;61;1135;-88
2022/10/14 07:03:04;523219.00;1.74;901.81;15573.00;0.05;27.60;;;;;19.40;6.70;;;;;;2276823;61;1179;-84
2022/10/14 07:05:31;704291.00;2.35;1214.68;38806.00;0.13;67.82;;;;;19.40;7.30;;;;;;2307658;55;3804;-85
2022/10/14 07:10:29;2034046.00;6.78;3694.47;160301.00;0.53;277.56;;;;;19.20;7.60;;;;;;2313035;40;3674;-86
2022/10/14 07:20:26;1175310.00;3.92;2045.64;0.00;0.00;0.62;;;;;19.40;7.70;;;;;;2269897;61;1345;-86
2022/10/14 07:25:22;928041.00;3.09;1605.42;0.00;0.00;0.62;;;;;19.40;7.00;;;;;;2269498;61;1556;-85
2022/10/14 07:27:51;515708.00;1.72;888.87;46036.00;0.15;80.33;;;;;19.20;8.20;;;;;;2268256;61;1479;-86
2022/10/14 07:30:18;360607.00;1.20;622.09;0.00;0.00;0.62;;;;;19.10;8.60;;;;;;2268200;61;2020;-85
2022/10/14 07:32:45;444011.00;1.48;765.48;62757.00;0.21;109.24;;;;;18.80;9.10;;;;;;2268197;61;1100;-86
2022/10/14 07:35:12;584333.00;1.95;1007.18;34969.00;0.12;61.18;;;;;19.00;9.60;;;;;;2268275;61;1265;-87
2022/10/14 07:42:40;1112345.00;3.71;1932.51;0.00;0.00;0.62;;;;;19.50;8.40;;;;;;2269714;61;1452;-86
2022/10/14 07:45:14;343658.00;1.15;592.96;61126.00;0.20;106.42;;;;;19.70;7.70;;;;;;2268258;61;1389;-87
2022/10/14 07:47:42;92164.00;0.31;160.04;0.00;0.00;0.62;;;;;19.90;6.90;;;;;;2268173;61;1600;-85
2022/10/14 07:50:09;232017.00;0.77;401.02;21148.00;0.07;37.26;;;;;19.90;6.70;;;;;;2268248;61;1997;-85
2022/10/14 07:52:37;259317.00;0.86;447.97;52878.00;0.18;92.16;;;;;19.90;7.30;;;;;;2268168;61;983;-85
2022/10/14 07:57:33;531942.00;1.77;916.84;0.00;0.00;0.62;;;;;19.70;8.40;;;;;;2278194;61;1396;-85
2022/10/14 08:00:00;281315.00;0.94;485.80;47444.00;0.16;82.77;;;;;19.80;8.30;;;;;;2276181;61;999;-86
2022/10/14 08:02:31;868427.00;2.89;1500.73;0.00;0.00;0.62;;;;;19.90;7.40;;;;;;2282659;56;3757;-84
2022/10/14 08:04:59;187353.00;0.62;324.15;50625.00;0.17;88.27;;;;;19.80;8.10;;;;;;2276288;61;1325;-84
2022/10/14 08:07:26;134713.00;0.45;233.46;14464.00;0.05;25.68;;;;;20.00;7.70;;;;;;2276179;61;1261;-84
2022/10/14 08:09:53;266706.00;0.89;460.68;0.00;0.00;0.62;;;;;20.20;6.50;;;;;;2278364;40;3504;-85
2022/10/14 08:12:21;226402.00;0.75;391.36;0.00;0.00;0.62;;;;;20.20;6.30;;;;;;2276148;61;1705;-87
2022/10/14 08:14:48;127209.00;0.42;220.52;0.00;0.00;0.62;;;;;20.20;6.80;;;;;;2276182;61;1635;-85
2022/10/14 08:17:18;234143.00;0.78;404.68;0.00;0.00;0.62;;;;;20.30;6.40;;;;;;2276238;61;1139;-86
2022/10/14 08:19:47;102899.00;0.34;178.58;0.00;0.00;0.62;;;;;20.30;7.70;;;;;;2276116;61;1569;-85
2022/10/14 08:24:45;432716.00;1.44;746.06;0.00;0.00;0.62;;;;;20.30;6.60;;;;;;2269694;61;1386;-83
2022/10/14 08:29:40;884765.00;2.95;1529.38;32050.00;0.11;56.13;;;;;20.20;7.90;;;;;;2269955;61;1956;-85
2022/10/14 08:34:36;1264355.00;4.21;2207.02;0.00;0.00;0.62;;;;;20.40;7.30;;;;;;2289345;40;3515;-85
2022/10/14 08:37:05;335110.00;1.12;578.27;0.00;0.00;0.62;;;;;20.50;7.10;;;;;;2276138;61;1270;-86
2022/10/14 08:39:32;213527.00;0.71;369.21;0.00;0.00;0.62;;;;;20.60;6.00;;;;;;2276117;61;1151;-85
2022/10/14 08:47:01;1683638.00;5.61;2993.68;30031.00;0.10;52.64;;;;;21.20;5.50;;;;;;2269614;61;1420;-87
2022/10/14 08:52:03;1832678.00;6.11;3286.23;75555.00;0.25;131.36;;;;;21.50;2.20;;;;;;2298159;40;3553;-86
2022/10/14 08:57:03;2413190.00;8.04;4510.14;45982.00;0.15;80.24;;;;;21.90;6.20;;;;;;2277749;61;1379;-86
2022/10/14 08:59:41;696661.00;2.32;1201.45;59695.00;0.20;103.95;;;;;21.90;2.40;;;;;;2275984;61;1671;-85
2022/10/14 09:07:19;1879478.00;6.26;3379.72;0.00;0.00;0.62;;;;;22.20;1.80;;;;;;2261218;61;1410;-86
2022/10/14 09:14:54;2624099.00;8.75;4994.48;130500.00;0.44;226.19;;;;;22.90;1.40;;;;;;2277278;61;1410;-86
2022/10/14 09:17:27;600869.00;2.00;1035.72;442.00;0.00;1.39;;;;;22.70;1.00;;;;;;2325926;40;3637;-86
2022/10/14 09:22:21;2393268.00;7.98;4465.59;84071.00;0.28;146.07;;;;;22.40;1.00;;;;;;2277576;61;1404;-84
2022/10/14 09:35:05;739298.00;2.46;1275.45;0.00;0.00;0.62;;;;;22.90;1.00;;;;;;2356291;40;2837;-88
2022/10/14 09:45:10;122165200.00;407.22;73861544.00;34157.00;0.11;59.78;;;;;23.40;1.00;;;;;;2331537;40;3641;-85
2022/10/14 10:05:27;587632.00;1.96;1012.87;0.00;0.00;0.62;;;;;23.30;1.00;;;;;;2364907;40;2855;-84
2022/10/14 10:08:12;752058.00;2.51;1297.64;106217.00;0.35;184.30;;;;;23.20;1.00;;;;;;2276307;61;1064;-85
2022/10/14 10:10:39;845241.00;2.82;1460.14;90158.00;0.30;156.58;;;;;22.90;1.00;;;;;;2276506;61;2018;-86
2022/10/14 10:18:18;1471500.00;4.91;2589.61;65511.00;0.22;114.00;;;;;23.50;1.00;;;;;;2270274;61;1409;-84
2022/10/14 10:21:05;717665.00;2.39;1237.89;65255.00;0.22;113.56;;;;;23.80;1.00;;;;;;2268572;61;944;-85
2022/10/14 10:23:33;708078.00;2.36;1221.25;21465.00;0.07;37.81;;;;;23.80;1.00;;;;;;2268403;61;1643;-85
2022/10/14 10:26:16;397840.00;1.33;686.09;0.00;0.00;0.62;;;;;23.90;1.00;;;;;;2264553;61;1783;-86
2022/10/14 10:28:47;726939.00;2.42;1253.99;0.00;0.00;0.62;;;;;23.90;1.00;;;;;;2264511;61;1919;-86
2022/10/14 10:31:37;601075.00;2.00;1036.08;93544.00;0.31;162.43;;;;;23.60;1.00;;;;;;2264580;61;929;-88
2022/10/14 10:34:18;428387.00;1.43;738.61;0.00;0.00;0.62;;;;;23.30;1.00;;;;;;2325201;40;3661;-86
2022/10/14 10:36:56;265293.00;0.88;458.25;0.00;0.00;0.62;;;;;23.30;1.00;;;;;;2276607;61;1598;-88
2022/10/14 10:39:34;351631.00;1.17;606.66;74211.00;0.25;129.04;;;;;23.50;1.00;;;;;;2276622;61;1611;-86
2022/10/14 10:45:01;1319463.00;4.40;2307.77;68689.00;0.23;119.49;;;;;23.70;1.00;;;;;;2270372;61;1405;-86
2022/10/14 10:52:48;882577.00;2.94;1525.54;68889.00;0.23;119.84;;;;;22.90;1.00;;;;;;2274493;61;1411;-85
2022/10/14 10:55:26;592773.00;1.98;1021.74;64496.00;0.21;112.25;;;;;22.90;1.00;;;;;;2272197;61;1458;-85
2022/10/14 10:58:04;519214.00;1.73;894.91;64044.00;0.21;111.47;;;;;22.80;1.00;;;;;;2272596;61;1041;-85
2022/10/14 11:00:38;562931.00;1.88;970.25;72729.00;0.24;126.48;;;;;22.90;1.00;;;;;;2286808;55;3827;-86
2022/10/14 11:03:33;209316.00;0.70;361.96;0.00;0.00;0.62;;;;;22.40;1.00;;;;;;2276531;61;1005;-88
2022/10/14 11:12:11;223736.00;0.75;386.77;58413.00;0.19;101.73;;;;;20.60;2.70;;;;;;2282820;61;724;-92
2022/10/14 11:17:18;1574036.00;5.25;2783.22;61840.00;0.21;107.66;;;;;20.60;4.90;;;;;;2270099;61;1341;-89
2022/10/14 11:19:52;704819.00;2.35;1215.60;61276.00;0.20;106.68;;;;;20.90;5.60;;;;;;2268190;61;1080;-88
2022/10/14 11:22:42;635353.00;2.12;1095.30;113886.00;0.38;197.53;;;;;21.10;4.40;;;;;;2268218;61;1097;-87
2022/10/14 11:25:25;481584.00;1.61;830.12;57883.00;0.19;100.82;;;;;21.50;4.80;;;;;;2268168;61;1730;-86
2022/10/14 11:30:37;1542761.00;5.14;2723.84;56902.00;0.19;99.12;;;;;22.00;3.10;;;;;;2273702;61;1899;-87
2022/10/14 11:33:19;337799.00;1.13;582.89;59446.00;0.20;103.52;;;;;22.20;3.00;;;;;;2275662;55;3767;-89
2022/10/14 11:45:55;587890.00;1.96;1013.31;0.00;0.00;0.62;;;;;22.20;1.00;;;;;;2270176;61;1409;-88
2022/10/14 11:48:35;426714.00;1.42;735.74;312.00;0.00;1.16;;;;;22.30;1.00;;;;;;2268252;61;1032;-86
2022/10/14 11:51:20;495787.00;1.65;854.57;54420.00;0.18;94.83;;;;;22.80;1.00;;;;;;2268218;61;1997;-85
2022/10/14 11:53:59;360615.00;1.20;622.11;371.00;0.00;1.26;;;;;22.70;1.00;;;;;;2268258;61;1333;-86
2022/10/14 11:56:41;429088.00;1.43;739.82;66374.00;0.22;115.49;;;;;22.60;1.00;;;;;;2268047;61;1098;-88
2022/10/14 12:01:46;786171.00;2.62;1357.02;69344.00;0.23;120.63;;;;;22.80;1.00;;;;;;2258459;61;1300;-85
2022/10/14 12:04:20;236605.00;0.79;408.91;0.00;0.00;0.62;;;;;23.40;1.00;;;;;;2256112;61;1452;-87
2022/10/14 12:06:53;344202.00;1.15;593.90;45003.00;0.15;78.54;;;;;23.70;1.00;;;;;;2265728;56;3756;-86
2022/10/14 12:09:27;219863.00;0.73;380.11;0.00;0.00;0.62;;;;;23.90;1.00;;;;;;2268254;61;2010;-87
2022/10/14 12:11:59;553360.00;1.84;953.75;235675.00;0.79;407.31;;;;;23.90;1.00;;;;;;2268173;61;1610;-87
2022/10/14 12:14:34;230080.00;0.77;397.69;0.00;0.00;0.62;;;;;23.90;1.00;;;;;;2268132;61;1730;-86
2022/10/14 12:17:05;165195.00;0.55;285.99;0.00;0.00;0.62;;;;;24.00;1.00;;;;;;2268273;61;1105;-86
2022/10/14 12:19:33;146962.00;0.49;254.57;0.00;0.00;0.62;;;;;23.60;1.00;;;;;;2268231;61;1613;-85
2022/10/14 12:22:12;471414.00;1.57;812.62;45884.00;0.15;80.07;;;;;22.80;1.00;;;;;;2268060;61;1671;-87
2022/10/14 12:29:50;1523627.00;5.08;2687.66;0.00;0.00;0.62;;;;;22.40;1.00;;;;;;2281811;56;3650;-86
2022/10/14 12:32:22;400692.00;1.34;690.99;0.00;0.00;0.62;;;;;22.10;1.00;;;;;;2276298;61;1771;-86
2022/10/14 12:34:52;228853.00;0.76;395.58;67799.00;0.23;117.96;;;;;21.80;1.00;;;;;;2276428;61;1629;-87
2022/10/14 12:37:50;431745.00;1.44;744.39;64789.00;0.22;112.75;;;;;21.50;1.00;;;;;;2286739;55;3741;-85
2022/10/14 12:40:35;434516.00;1.45;749.15;67977.00;0.23;118.26;;;;;21.70;1.00;;;;;;2272124;61;1049;-86
2022/10/14 12:43:12;620185.00;2.07;1069.09;0.00;0.00;0.62;;;;;21.90;1.00;;;;;;2272338;61;1096;-88